Flight Track Log - Related Links

Times and Time Zones

All times are in EDT time to prevent confusion due to time zone crossing. See the KAP444 flight status page for this flight to view local times or setup timezone preferences in your user account.

Time Position Orientation Groundspeed Altitude Reporting Facility
EDT Latitude Longitude Course Direction KTS MPH feet Rate Location/Type
Sun 07:16:38 AM 44.5414 -75.2597 124° Southeast 98 113 6,400  Level Boston Center
Sun 07:17:38 AM 44.5131 -75.2319 145° Southeast 116 133 7,200 650 Climbing Boston Center
Sun 07:18:38 AM 44.4781 -75.2128 159° South 121 139 7,700 200 Climbing Boston Center
Sun 07:19:38 AM 44.4414 -75.1764 145° Southeast 141 162 7,600 -50 Descending Boston Center
Sun 07:20:38 AM 44.3983 -75.1453 153° Southeast 163 188 7,600  Level Boston Center
Sun 07:21:00 AM 44.4985 -75.3020 148° Southeast  Level Estimated
Sun 07:21:38 AM 44.3594 -75.1086 146° Southeast 168 193 7,600  Level Boston Center
Sun 07:22:00 AM 44.4781 -75.2597 124° Southeast  Level FlightAware Approximate
Sun 07:22:38 AM 44.3228 -75.0722 145° Southeast 168 193 7,700  Level Boston Center
Sun 07:23:38 AM 44.2819 -75.0414 152° Southeast 163 188 7,700  Level Boston Center
Sun 07:24:38 AM 44.2411 -75.0047 147° Southeast 163 188 7,700  Level Boston Center
Sun 07:25:38 AM 44.2022 -74.9711 148° Southeast 163 188 7,700 -50 Level Boston Center
Sun 07:26:38 AM 44.1633 -74.9406 151° Southeast 163 188 7,600  Descending Boston Center
Sun 07:27:38 AM 44.1222 -74.9100 152° Southeast 163 188 7,700 50 Climbing Boston Center
Sun 07:28:38 AM 44.0833 -74.8767 148° Southeast 163 188 7,700  Level Boston Center
Sun 07:29:38 AM 44.0425 -74.8431 149° Southeast 163 188 7,700  Level Boston Center
Sun 07:30:38 AM 44.0036 -74.8069 146° Southeast 163 188 7,700 -50 Level Boston Center
Sun 07:31:38 AM 43.9625 -74.7764 152° Southeast 163 188 7,600  Descending Boston Center
Sun 07:32:38 AM 43.9214 -74.7431 150° Southeast 163 188 7,700 100 Climbing Boston Center
Sun 07:33:38 AM 43.8847 -74.7131 149° Southeast 163 188 7,800 50 Climbing Boston Center
Sun 07:34:38 AM 43.8414 -74.6825 153° Southeast 163 188 7,800  Level Boston Center
Sun 07:35:38 AM 43.8025 -74.6494 148° Southeast 163 188 7,800  Level Boston Center
Sun 07:36:38 AM 43.7656 -74.6136 145° Southeast 163 188 7,800 -50 Level Boston Center
Sun 07:37:38 AM 43.7244 -74.5833 152° Southeast 163 188 7,700  Descending Boston Center
Sun 07:38:38 AM 43.6856 -74.5503 148° Southeast 163 188 7,800  Climbing Boston Center
Sun 07:39:38 AM 43.6467 -74.5175 149° Southeast 163 188 7,700 -100 Descending Boston Center
Sun 07:40:38 AM 43.6056 -74.4875 152° Southeast 163 188 7,600 -100 Descending Boston Center
Sun 07:41:38 AM 43.5664 -74.4517 146° Southeast 163 188 7,500 -50 Descending Boston Center
Sun 07:42:38 AM 43.5253 -74.4217 152° Southeast 163 188 7,500  Level Boston Center
Sun 07:43:38 AM 43.4842 -74.3917 152° Southeast 163 188 7,500  Level Boston Center
Sun 07:44:38 AM 43.4450 -74.3617 151° Southeast 163 188 7,500 74 Level Boston Center
Sun 07:44:59 AM 43.4347 -74.3500 141° Southeast 159 183 7,600  Climbing Boston Center
Sun 07:45:38 AM 43.4081 -74.3292 150° Southeast 163 188 7,500  Descending Boston Center
Sun 07:46:00 AM 43.3958 -74.3175 145° Southeast 159 183 7,600  Climbing Boston Center
Sun 07:46:38 AM 43.3711 -74.2939 145° Southeast 163 188 7,500 -98 Descending Boston Center
Sun 07:47:01 AM 43.3589 -74.2847 151° Southeast 159 183 7,500 -200 Level Boston Center
Sun 07:47:38 AM 43.3361 -74.2614 143° Southeast 163 188 7,300 -222 Descending Boston Center
Sun 07:47:55 AM 43.3217 -74.2522 155° Southeast 165 190 7,300 -300 Level Boston Center
Sun 07:48:38 AM 43.2908 -74.2286 151° Southeast 168 193 7,000 -295 Descending Boston Center
Sun 07:48:56 AM 43.2806 -74.2225 157° South 173 199 7,000 -200 Level Boston Center
Sun 07:49:38 AM 43.2517 -74.2017 152° Southeast 168 193 6,800 -294 Descending Boston Center
Sun 07:50:38 AM 43.2083 -74.1692 151° Southeast 174 200 6,500 -350 Descending Boston Center
Sun 07:51:38 AM 43.1694 -74.1367 149° Southeast 174 200 6,100 -350 Descending Boston Center
Sun 07:52:38 AM 43.1219 -74.0986 150° Southeast 180 207 5,800 -350 Descending Boston Center
Sun 07:53:38 AM 43.0850 -74.0661 147° Southeast 180 207 5,400 -400 Descending Boston Center
Sun 07:53:53 AM 43.0725 -74.0572 153° Southeast 178 205 5,300 -500 Descending Boston Center
Sun 07:54:38 AM 43.0353 -74.0281 150° Southeast 180 207 4,900 -393 Descending Boston Center
Sun 07:54:54 AM 43.0272 -74.0192 141° Southeast 187 215 4,900 -300 Level Boston Center
Sun 07:55:38 AM 42.9983 -73.9931 147° Southeast 180 207 4,600 -364 Descending Boston Center
Sun 07:56:00 AM 42.9797 -73.9811 155° Southeast 179 206 4,500 -583 Descending Boston Center
Sun 07:56:50 AM 42.9531 -73.9436 134° Southeast 180 207 3,900 -764 Descending Boston Center
Sun 07:57:50 AM 42.9164 -73.8861 131° Southeast 180 207 3,100 -700 Descending Boston Center
Sun 07:58:50 AM 42.8878 -73.8428 132° Southeast 180 207 2,500 -524 Descending Boston Center
Sun 07:59:56 AM 42.8361 -73.8106 155° Southeast 173 199 2,000 -614 Descending Boston Center
Sun 08:00:57 AM 42.7944 -73.8094 179° South 137 158 1,200 -750 Descending Boston Center
Sun 08:02:04 AM 42.7589 -73.8058 176° South 99 114 400 -716 Descending Boston Center
Sun 08:04:00 AM 42.7491 -73.8020 160° South  Level Estimated
Sun 08:11:00 AM 42.7491 -73.8020 160° South  Level Estimated
Sun 08:12:00 AM 42.7491 -73.8020 160° South  Level Estimated
Sun 08:13:00 AM 42.7491 -73.8020 160° South  Level Estimated

Login

Don't have an account? Register now (free) for customized features, flight alerts, and more!